Time;durP1;ratioP1;P1;durP2;ratioP2;P2;SDS_P1;SDS_P2;PMS_P1;PMS_P2;Temp;Humidity;BMP_temperature;BMP_pressure;BME280_temperature;BME280_humidity;BME280_pressure;Samples;Min_cycle;Max_cycle;Signal;HPM_P1;HPM_P2
2021/05/22 00:02:48;;;;;;;;;;;;;;;;;;;;;
2021/05/22 00:05:52;;;;;;;0.20;0.20;;;8.30;99.90;;;;;;6050070;23;20459;-93
2021/05/22 00:18:43;;;;;;;0.30;0.20;;;8.20;99.90;;;;;;6220598;22;20051;-94
2021/05/22 00:21:32;;;;;;;0.55;0.52;;;8.20;99.90;;;;;;6195756;23;20009;-95
2021/05/22 00:27:12;;;;;;;1.15;0.20;;;8.20;99.90;;;;;;6250368;23;20042;-94
2021/05/22 00:29:55;;;;;;;0.90;0.30;;;8.20;99.90;;;;;;6225260;23;20004;-93
2021/05/22 00:32:43;;;;;;;;;;;;;;;;;;;;;
2021/05/22 00:35:36;;;;;;;0.73;0.30;;;8.10;99.90;;;;;;6220740;23;20079;-92
2021/05/22 00:38:05;;;;;;;0.40;0.20;;;8.10;99.90;;;;;;6123167;23;20005;-95
2021/05/22 00:40:43;;;;;;;0.10;0.10;;;8.00;99.90;;;;;;6102982;23;20006;-95
2021/05/22 00:43:24;;;;;;;0.93;0.30;;;8.00;99.90;;;;;;6102806;23;20014;-94
2021/05/22 00:46:06;;;;;;;0.57;0.20;;;8.00;99.90;;;;;;6102681;23;20010;-94
2021/05/22 00:48:35;;;;;;;0.30;0.30;;;7.90;99.90;;;;;;6097839;23;20006;-94
2021/05/22 00:51:16;;;;;;;1.67;0.30;;;7.90;99.90;;;;;;6127753;23;20006;-93
2021/05/22 00:53:42;;;;;;;1.65;0.20;;;7.90;99.90;;;;;;6103784;23;20045;-93
2021/05/22 00:56:16;;;;;;;0.32;0.20;;;7.90;99.90;;;;;;6103659;23;20006;-95
2021/05/22 00:58:46;;;;;;;0.65;0.30;;;7.80;99.90;;;;;;6106376;23;20009;-94
2021/05/22 01:01:13;;;;;;;0.40;0.30;;;7.80;99.90;;;;;;6108422;23;20449;-93
2021/05/22 01:03:52;;;;;;;1.08;0.50;;;7.80;99.90;;;;;;6101625;23;20006;-94
2021/05/22 01:06:32;;;;;;;2.83;0.38;;;7.80;99.90;;;;;;6101527;23;20103;-94
2021/05/22 01:09:22;;;;;;;0.55;0.38;;;7.70;99.90;;;;;;6101344;23;20013;-91
2021/05/22 01:12:01;;;;;;;0.50;0.30;;;7.70;99.90;;;;;;6097934;23;20009;-92
2021/05/22 01:15:07;;;;;;;0.30;0.30;;;7.60;99.90;;;;;;6158652;23;20039;-91
2021/05/22 01:17:44;;;;;;;0.40;0.32;;;7.60;99.90;;;;;;6162644;23;20004;-94
2021/05/22 01:20:53;;;;;;;1.30;0.40;;;7.60;99.90;;;;;;6223383;23;20016;-93
2021/05/22 01:23:43;;;;;;;1.40;0.50;;;7.60;99.90;;;;;;6103335;23;20010;-93
2021/05/22 01:26:17;;;;;;;1.50;1.40;;;7.60;99.90;;;;;;6103621;23;20002;-93
2021/05/22 01:28:49;;;;;;;0.63;0.47;;;7.50;99.90;;;;;;6128498;23;20030;-95
2021/05/22 01:31:18;;;;;;;0.60;0.50;;;7.50;99.90;;;;;;6074512;23;20447;-91
2021/05/22 01:36:34;;;;;;;1.65;0.50;;;7.50;99.90;;;;;;6084071;23;20006;-93
2021/05/22 01:39:00;;;;;;;2.30;0.50;;;7.50;99.90;;;;;;6109999;23;20632;-94
2021/05/22 01:41:26;;;;;;;0.68;0.50;;;7.50;99.90;;;;;;6101450;23;20026;-91
2021/05/22 01:43:55;;;;;;;0.85;0.40;;;7.50;99.90;;;;;;6102283;23;20041;-93
2021/05/22 01:46:23;;;;;;;2.08;0.65;;;7.50;99.90;;;;;;6103529;23;20010;-94
2021/05/22 01:48:50;;;;;;;0.95;0.65;;;7.40;99.90;;;;;;6101718;23;20006;-93
2021/05/22 01:51:19;;;;;;;3.13;0.82;;;7.40;99.90;;;;;;6100516;23;20002;-94
2021/05/22 01:53:47;;;;;;;1.70;0.60;;;7.40;99.90;;;;;;6100229;23;20010;-93
2021/05/22 01:56:15;;;;;;;1.63;0.40;;;7.40;99.90;;;;;;6115460;23;20493;-92
2021/05/22 01:58:41;;;;;;;1.10;0.55;;;7.40;99.90;;;;;;6221811;23;20435;-92
2021/05/22 02:01:12;;;;;;;1.77;0.50;;;7.40;99.90;;;;;;6222079;23;20088;-93
2021/05/22 02:03:47;;;;;;;1.52;0.65;;;7.40;99.90;;;;;;6221000;23;20015;-93
2021/05/22 02:06:14;;;;;;;2.50;0.77;;;7.40;99.90;;;;;;6220214;23;20009;-90
2021/05/22 02:08:44;;;;;;;1.90;0.90;;;7.40;99.90;;;;;;6221253;23;20004;-92
2021/05/22 02:11:12;;;;;;;1.75;0.70;;;7.40;99.90;;;;;;6221321;23;20016;-91
2021/05/22 02:13:40;;;;;;;2.60;0.65;;;7.40;99.90;;;;;;6221279;23;20023;-92
2021/05/22 02:16:08;;;;;;;3.78;0.70;;;7.40;99.90;;;;;;6196906;23;20098;-92
2021/05/22 02:18:35;;;;;;;1.48;0.65;;;7.40;99.90;;;;;;6203979;23;20444;-91
2021/05/22 02:21:03;;;;;;;1.05;0.65;;;7.40;99.90;;;;;;6214933;23;20016;-91
2021/05/22 02:23:32;;;;;;;0.70;0.43;;;7.40;99.90;;;;;;6219821;23;20070;-91
2021/05/22 02:25:59;;;;;;;2.45;0.68;;;7.40;99.90;;;;;;6219942;23;20420;-92
2021/05/22 02:28:32;;;;;;;4.68;0.60;;;7.40;99.90;;;;;;6220447;23;20018;-92
2021/05/22 02:31:00;;;;;;;1.50;0.82;;;7.40;99.90;;;;;;6221546;23;20444;-92
2021/05/22 02:33:26;;;;;;;1.17;0.60;;;7.40;99.90;;;;;;6220414;23;20004;-92
2021/05/22 02:35:55;;;;;;;1.08;0.60;;;7.40;99.90;;;;;;6219734;23;20019;-91
2021/05/22 02:38:42;;;;;;;2.42;0.80;;;7.40;99.90;;;;;;6220416;23;20000;-91
2021/05/22 02:41:12;;;;;;;1.13;0.60;;;7.30;99.90;;;;;;6219230;23;20027;-95
2021/05/22 02:43:46;;;;;;;1.10;0.63;;;7.30;99.90;;;;;;6219745;23;20064;-94
2021/05/22 02:46:14;;;;;;;1.77;0.60;;;7.40;99.90;;;;;;6219398;23;20014;-94
2021/05/22 02:48:40;;;;;;;2.25;0.70;;;7.40;99.90;;;;;;6219561;23;20016;-94
2021/05/22 02:51:11;;;;;;;2.63;0.75;;;7.40;99.90;;;;;;6219251;23;20012;-92
2021/05/22 02:53:45;;;;;;;3.63;0.77;;;7.40;99.90;;;;;;6204606;23;20004;-94
2021/05/22 02:56:16;;;;;;;4.15;1.00;;;7.40;99.90;;;;;;6217869;23;20012;-94
2021/05/22 02:58:47;;;;;;;1.88;0.60;;;7.40;99.90;;;;;;6222217;23;20000;-94
2021/05/22 03:01:26;;;;;;;1.83;0.70;;;7.40;99.90;;;;;;6222905;23;20104;-92
2021/05/22 03:03:55;;;;;;;3.90;0.90;;;7.40;99.90;;;;;;6222262;23;20012;-94
2021/05/22 03:06:27;;;;;;;2.70;0.80;;;7.30;99.90;;;;;;6220945;23;20011;-94
2021/05/22 03:08:56;;;;;;;1.30;0.60;;;7.40;99.90;;;;;;6224723;23;20011;-94
2021/05/22 03:11:22;;;;;;;1.25;0.60;;;7.30;99.90;;;;;;6224369;23;20000;-94
2021/05/22 03:13:49;;;;;;;2.35;0.70;;;7.30;99.90;;;;;;6228352;23;20008;-94
2021/05/22 03:16:15;;;;;;;0.40;0.40;;;7.30;99.90;;;;;;6226319;23;20125;-95
2021/05/22 03:18:42;;;;;;;2.72;0.63;;;7.30;99.90;;;;;;6225814;23;20004;-95
2021/05/22 03:21:09;;;;;;;0.82;0.40;;;7.30;99.90;;;;;;6219543;23;20024;-94
2021/05/22 03:23:35;;;;;;;2.58;0.68;;;7.30;99.90;;;;;;6195896;23;20016;-92
2021/05/22 03:26:04;;;;;;;1.45;0.63;;;7.30;99.90;;;;;;6193455;23;20008;-94
2021/05/22 03:28:30;;;;;;;0.88;0.40;;;7.30;99.90;;;;;;6192342;23;20013;-94
2021/05/22 03:30:55;;;;;;;0.45;0.40;;;7.30;99.90;;;;;;6192273;23;20052;-94
2021/05/22 03:33:24;;;;;;;0.93;0.38;;;7.30;99.90;;;;;;6197640;23;20004;-94
2021/05/22 03:35:51;;;;;;;0.80;0.43;;;7.30;99.90;;;;;;6205813;23;20068;-94
2021/05/22 03:38:20;;;;;;;0.80;0.50;;;7.30;99.90;;;;;;6178822;23;20012;-94
2021/05/22 03:40:49;;;;;;;1.08;0.38;;;7.30;99.90;;;;;;6204959;23;20004;-93
2021/05/22 03:43:15;;;;;;;0.50;0.45;;;7.30;99.90;;;;;;6204672;23;20566;-95
2021/05/22 03:45:41;;;;;;;0.52;0.30;;;7.30;99.90;;;;;;6199137;23;20004;-95
2021/05/22 03:48:07;;;;;;;1.45;0.22;;;7.20;99.90;;;;;;6196121;23;20021;-94
2021/05/22 03:50:32;;;;;;;0.68;0.40;;;7.20;99.90;;;;;;6195522;23;20316;-95
2021/05/22 03:52:58;;;;;;;0.20;0.20;;;7.20;99.90;;;;;;6193215;23;20001;-93
2021/05/22 03:55:24;;;;;;;2.10;0.40;;;7.20;99.90;;;;;;6192273;23;20019;-94
2021/05/22 03:57:50;;;;;;;1.13;0.28;;;7.20;99.90;;;;;;6191615;23;20032;-94
2021/05/22 04:00:16;;;;;;;0.55;0.30;;;7.20;99.90;;;;;;6192114;23;20009;-94
2021/05/22 04:02:42;;;;;;;0.50;0.40;;;7.20;99.90;;;;;;6191136;23;20440;-93
2021/05/22 04:05:08;;;;;;;1.65;0.50;;;7.20;99.90;;;;;;6190759;23;20011;-94
2021/05/22 04:07:34;;;;;;;0.73;0.50;;;7.20;99.90;;;;;;6192186;23;20157;-93
2021/05/22 04:10:00;;;;;;;0.70;0.50;;;7.20;99.90;;;;;;6193507;23;20067;-93
2021/05/22 04:12:26;;;;;;;1.48;0.30;;;7.20;99.90;;;;;;6194818;23;20434;-93
2021/05/22 04:14:51;;;;;;;1.63;0.28;;;7.20;99.90;;;;;;6193881;23;20032;-93
2021/05/22 04:17:20;;;;;;;0.30;0.30;;;7.20;99.90;;;;;;6195014;23;20441;-92
2021/05/22 04:19:45;;;;;;;2.60;0.52;;;7.20;99.90;;;;;;6201243;23;20019;-93
2021/05/22 04:22:11;;;;;;;0.73;0.40;;;7.10;99.90;;;;;;6199368;23;20038;-92
2021/05/22 04:24:37;;;;;;;1.13;0.40;;;7.10;99.90;;;;;;6202257;23;20009;-94
2021/05/22 04:27:23;;;;;;;2.40;0.50;;;7.10;99.90;;;;;;6201152;23;20004;-94
2021/05/22 04:29:49;;;;;;;0.98;0.47;;;7.10;99.90;;;;;;6148784;23;20013;-92
2021/05/22 04:32:14;;;;;;;2.83;0.60;;;7.10;99.90;;;;;;6188165;23;20055;-93
2021/05/22 04:34:40;;;;;;;0.30;0.30;;;7.10;99.90;;;;;;6198302;23;20012;-93
2021/05/22 04:37:06;;;;;;;1.65;0.60;;;7.10;99.90;;;;;;6194959;23;20005;-93
2021/05/22 04:39:32;;;;;;;2.63;1.27;;;7.10;99.90;;;;;;6193959;23;20012;-92
2021/05/22 04:41:58;;;;;;;2.85;0.50;;;7.10;99.90;;;;;;6196488;23;20103;-93
2021/05/22 04:44:24;;;;;;;0.82;0.40;;;7.10;99.90;;;;;;6200147;23;20005;-93
2021/05/22 04:46:49;;;;;;;0.40;0.32;;;7.10;99.90;;;;;;6200257;23;20009;-92
2021/05/22 04:49:15;;;;;;;0.63;0.55;;;7.10;99.90;;;;;;6205367;23;19997;-94
2021/05/22 04:51:45;;;;;;;2.65;0.50;;;7.20;99.90;;;;;;6199934;23;20011;-94
2021/05/22 04:54:11;;;;;;;0.80;0.60;;;7.20;99.90;;;;;;6197653;23;20015;-93
2021/05/22 04:56:37;;;;;;;0.68;0.60;;;7.20;99.90;;;;;;6193644;23;20012;-93
2021/05/22 04:59:03;;;;;;;3.97;0.73;;;7.20;99.90;;;;;;6194248;23;20406;-92
2021/05/22 05:01:30;;;;;;;1.00;0.60;;;7.20;99.90;;;;;;6198827;23;20024;-93
2021/05/22 05:03:56;;;;;;;1.55;0.50;;;7.20;99.90;;;;;;6201575;23;20008;-92
2021/05/22 05:06:21;;;;;;;0.30;0.30;;;7.20;99.90;;;;;;6201091;23;20012;-93
2021/05/22 05:08:47;;;;;;;0.40;0.40;;;7.20;99.90;;;;;;6202283;23;20016;-93
2021/05/22 05:14:17;;;;;;;0.57;0.57;;;7.20;99.90;;;;;;6166926;23;20001;-93
2021/05/22 05:16:43;;;;;;;2.20;0.50;;;7.20;99.90;;;;;;6140649;23;20014;-92
2021/05/22 05:19:08;;;;;;;1.40;0.47;;;7.20;99.90;;;;;;6141576;23;20017;-93
2021/05/22 05:22:01;;;;;;;0.52;0.50;;;7.20;99.90;;;;;;6142089;23;20113;-93
2021/05/22 05:24:27;;;;;;;0.40;0.40;;;7.10;99.90;;;;;;6136949;23;20018;-93
2021/05/22 05:26:53;;;;;;;0.30;0.30;;;7.10;99.90;;;;;;6133266;23;20077;-92
2021/05/22 05:29:19;;;;;;;1.67;0.50;;;7.10;99.90;;;;;;6133846;23;20017;-93
2021/05/22 05:31:45;;;;;;;0.63;0.45;;;7.20;99.90;;;;;;6132235;23;20381;-93
2021/05/22 05:34:11;;;;;;;0.22;0.22;;;7.20;99.90;;;;;;6131487;23;20017;-93
2021/05/22 05:36:37;;;;;;;0.30;0.30;;;7.10;99.90;;;;;;6131957;23;20002;-93
2021/05/22 05:39:04;;;;;;;1.27;0.50;;;7.10;99.90;;;;;;6133987;23;20006;-94
2021/05/22 05:42:20;;;;;;;1.25;0.45;;;7.20;99.90;;;;;;6133547;23;20053;-93
2021/05/22 05:44:46;;;;;;;0.63;0.38;;;7.20;99.90;;;;;;6041742;23;20011;-94
2021/05/22 05:47:11;;;;;;;2.03;0.50;;;7.20;99.90;;;;;;6046818;23;20007;-94
2021/05/22 05:49:37;;;;;;;0.77;0.50;;;7.20;99.90;;;;;;6047812;23;20023;-93
2021/05/22 05:52:03;;;;;;;0.98;0.40;;;7.30;99.90;;;;;;6044996;23;20026;-94
2021/05/22 05:54:29;;;;;;;1.38;0.65;;;7.30;99.90;;;;;;6046215;23;20011;-94
2021/05/22 05:57:21;;;;;;;1.02;0.43;;;7.30;99.90;;;;;;6045448;23;20007;-95
2021/05/22 05:59:46;;;;;;;1.60;0.52;;;7.30;99.90;;;;;;6045886;23;20040;-94
2021/05/22 06:02:12;;;;;;;3.13;0.50;;;7.30;99.90;;;;;;6046517;23;20026;-95
2021/05/22 06:04:38;;;;;;;1.05;0.80;;;7.40;99.90;;;;;;6047933;23;20021;-95
2021/05/22 06:07:04;;;;;;;2.13;0.90;;;7.40;99.90;;;;;;6046723;23;20070;-94
2021/05/22 06:09:29;;;;;;;1.42;0.80;;;7.40;99.90;;;;;;6048637;23;20384;-94
2021/05/22 06:11:55;;;;;;;1.05;0.80;;;7.40;99.90;;;;;;6045577;23;20102;-94
2021/05/22 06:14:35;;;;;;;1.83;0.80;;;7.30;99.90;;;;;;6044705;23;20435;-96
2021/05/22 06:17:03;;;;;;;0.80;0.77;;;7.30;99.90;;;;;;6043305;23;20007;-92
2021/05/22 06:19:29;;;;;;;1.20;0.70;;;7.30;99.90;;;;;;6041999;23;20474;-93
2021/05/22 06:21:58;;;;;;;0.70;0.68;;;7.30;99.90;;;;;;6138032;23;20007;-92
2021/05/22 06:24:24;;;;;;;2.78;0.70;;;7.30;99.90;;;;;;6159648;23;20044;-93
2021/05/22 06:26:53;;;;;;;2.50;0.85;;;7.30;99.90;;;;;;6159858;23;20435;-93
2021/05/22 06:29:19;;;;;;;1.95;0.63;;;7.30;99.90;;;;;;6163341;23;20072;-93
2021/05/22 06:31:45;;;;;;;2.00;0.82;;;7.30;99.90;;;;;;6164992;23;20080;-94
2021/05/22 06:34:10;;;;;;;1.30;0.63;;;7.30;99.90;;;;;;6171213;23;20016;-93
2021/05/22 06:36:41;;;;;;;1.55;0.68;;;7.30;99.90;;;;;;6165235;23;20005;-92
2021/05/22 06:39:07;;;;;;;1.25;0.57;;;7.40;99.90;;;;;;6164848;23;20039;-93
2021/05/22 06:41:33;;;;;;;0.70;0.60;;;7.40;99.90;;;;;;6163956;23;20408;-93
2021/05/22 06:43:59;;;;;;;2.00;0.70;;;7.40;99.90;;;;;;6162618;23;20440;-92
2021/05/22 06:48:53;;;;;;;1.23;0.70;;;7.50;99.90;;;;;;6191131;23;20017;-93
2021/05/22 06:51:19;;;;;;;1.17;0.80;;;7.60;99.90;;;;;;6165874;23;20104;-94
2021/05/22 06:53:45;;;;;;;1.85;0.68;;;7.60;99.90;;;;;;6161014;23;20016;-93
2021/05/22 06:56:10;;;;;;;3.10;0.80;;;7.60;99.90;;;;;;6161913;23;20059;-93
2021/05/22 06:58:36;;;;;;;2.00;0.77;;;7.70;99.90;;;;;;6165555;23;20001;-93
2021/05/22 07:01:04;;;;;;;1.40;0.60;;;7.70;99.90;;;;;;6166596;23;20008;-92
2021/05/22 07:03:30;;;;;;;2.13;0.43;;;7.80;99.90;;;;;;6166531;23;20024;-93
2021/05/22 07:06:00;;;;;;;2.72;0.70;;;7.80;99.90;;;;;;6164270;23;20001;-93
2021/05/22 07:08:26;;;;;;;3.63;0.77;;;7.80;99.90;;;;;;6160445;23;20009;-91
2021/05/22 07:10:57;;;;;;;0.65;0.50;;;7.80;99.90;;;;;;6160619;23;20009;-94
2021/05/22 07:13:54;;;;;;;1.13;0.57;;;7.90;99.90;;;;;;6161732;23;20016;-96
2021/05/22 07:16:53;;;;;;;1.05;0.43;;;7.90;99.90;;;;;;6162383;23;20061;-93
2021/05/22 07:19:19;;;;;;;0.50;0.50;;;8.00;99.90;;;;;;6179786;23;20016;-92
2021/05/22 07:21:50;;;;;;;0.60;0.50;;;8.00;99.90;;;;;;6196750;23;20489;-93
2021/05/22 07:24:16;;;;;;;3.55;0.50;;;8.00;99.90;;;;;;6194119;23;20008;-93
2021/05/22 07:26:42;;;;;;;3.20;0.60;;;8.00;99.90;;;;;;6194651;23;20009;-92
2021/05/22 09:58:05;;;;;;;2.58;0.50;;;10.00;99.90;;;;;;6158283;23;20044;-93
2021/05/22 10:00:32;;;;;;;0.45;0.40;;;10.00;99.90;;;;;;6129233;23;20025;-93
2021/05/22 10:03:01;;;;;;;0.50;0.50;;;10.10;99.90;;;;;;6154442;23;20425;-93
2021/05/22 10:05:31;;;;;;;1.60;0.40;;;10.20;99.90;;;;;;6156704;23;20005;-91
2021/05/22 10:07:57;;;;;;;1.02;0.93;;;10.30;99.90;;;;;;6130788;23;20441;-94
2021/05/22 10:10:45;;;;;;;0.40;0.20;;;10.40;99.90;;;;;;6129896;23;20081;-92
2021/05/22 10:13:12;;;;;;;0.50;0.38;;;10.50;99.90;;;;;;6134325;23;20010;-93
2021/05/22 10:15:39;;;;;;;0.68;0.50;;;10.50;99.90;;;;;;6129790;23;20012;-93
